createdAt,value
2023-04-12T00:00:00.630Z,10.7
2023-04-12T00:01:00.442Z,11.1
2023-04-12T00:02:00.446Z,11.1
2023-04-12T00:03:04.991Z,11.1
2023-04-12T00:04:00.953Z,11.1
2023-04-12T00:05:00.501Z,11.1
2023-04-12T00:06:01.273Z,10.8
2023-04-12T00:07:01.151Z,10.8
2023-04-12T00:08:00.562Z,10.8
2023-04-12T00:09:01.186Z,10.8
2023-04-12T00:10:00.455Z,10.8
2023-04-12T00:11:02.121Z,10.3
2023-04-12T00:12:00.480Z,10.3
2023-04-12T00:13:00.436Z,10.3
2023-04-12T00:14:00.412Z,10.3
2023-04-12T00:15:00.445Z,10.3
2023-04-12T00:16:00.522Z,10.0
2023-04-12T00:17:00.445Z,10.0
2023-04-12T00:18:00.468Z,10.0
2023-04-12T00:19:00.431Z,10.0
2023-04-12T00:20:01.674Z,10.0
2023-04-12T00:21:00.425Z,9.1
2023-04-12T00:22:00.401Z,9.1
2023-04-12T00:23:00.440Z,9.1
2023-04-12T00:24:00.422Z,9.1
2023-04-12T00:25:00.432Z,9.1
2023-04-12T00:26:00.441Z,9.2
2023-04-12T00:27:00.593Z,9.2
2023-04-12T00:28:00.421Z,9.2
2023-04-12T00:29:00.597Z,9.2
2023-04-12T00:30:00.790Z,9.2
2023-04-12T00:31:00.986Z,8.7
2023-04-12T00:32:00.543Z,8.7
2023-04-12T00:33:00.509Z,8.7
2023-04-12T00:34:00.418Z,8.7
2023-04-12T00:35:00.444Z,8.7
2023-04-12T00:36:00.766Z,8.2
2023-04-12T00:37:01.151Z,8.2
2023-04-12T00:38:00.464Z,8.2
2023-04-12T00:39:00.429Z,8.2
2023-04-12T00:40:00.696Z,8.2
2023-04-12T00:41:00.552Z,8.1
2023-04-12T00:42:03.616Z,8.1
2023-04-12T00:43:00.416Z,8.1
2023-04-12T00:44:00.409Z,8.1
2023-04-12T00:45:00.457Z,8.1
2023-04-12T00:46:00.747Z,8.0
2023-04-12T00:47:02.502Z,8.0
2023-04-12T00:48:00.523Z,8.0
2023-04-12T00:49:01.561Z,8.0
2023-04-12T00:50:01.260Z,8.0
2023-04-12T00:51:00.602Z,7.8
2023-04-12T00:52:04.019Z,7.8
2023-04-12T00:53:02.508Z,7.8
2023-04-12T00:54:01.116Z,7.8
2023-04-12T00:55:03.433Z,7.8
2023-04-12T00:56:00.487Z,7.7
2023-04-12T00:57:00.889Z,7.7
2023-04-12T00:58:00.579Z,7.7
2023-04-12T00:59:00.417Z,7.7
2023-04-12T01:00:00.456Z,7.7
2023-04-12T01:01:00.527Z,7.5
2023-04-12T01:02:00.867Z,7.5
2023-04-12T01:03:01.255Z,7.5
2023-04-12T01:04:00.594Z,7.5
2023-04-12T01:05:01.568Z,7.5
2023-04-12T01:06:15.094Z,8.1
2023-04-12T01:07:09.539Z,8.1
2023-04-12T01:08:20.356Z,8.1
2023-04-12T01:09:20.319Z,8.1
2023-04-12T01:10:12.180Z,7.8
2023-04-12T01:11:11.771Z,7.8
2023-04-12T01:12:20.333Z,7.8
2023-04-12T01:13:14.755Z,7.8
2023-04-12T01:14:16.349Z,7.8
2023-04-12T01:15:07.456Z,7.5
2023-04-12T01:16:11.175Z,7.5
2023-04-12T01:17:04.099Z,7.5
2023-04-12T01:18:07.401Z,7.5
2023-04-12T01:19:20.358Z,7.5
2023-04-12T01:20:06.345Z,7.4
2023-04-12T01:21:07.194Z,7.4
2023-04-12T01:22:10.396Z,7.4
2023-04-12T01:23:13.601Z,7.4
2023-04-12T01:24:11.364Z,7.4
2023-04-12T01:25:03.885Z,7.1
2023-04-12T01:26:11.021Z,7.1
2023-04-12T01:27:02.029Z,7.1
2023-04-12T01:28:03.184Z,7.1
2023-04-12T01:29:03.529Z,7.1
2023-04-12T01:30:02.712Z,7.0
2023-04-12T01:31:02.859Z,7.0
2023-04-12T01:32:02.682Z,7.0
2023-04-12T01:33:03.768Z,7.0
2023-04-12T01:34:02.713Z,7.0
2023-04-12T01:35:02.744Z,7.2
2023-04-12T01:36:05.051Z,7.2
2023-04-12T01:37:01.859Z,7.2
2023-04-12T01:38:01.241Z,7.2
2023-04-12T01:39:01.613Z,7.2
2023-04-12T01:40:00.575Z,6.9
2023-04-12T01:41:00.716Z,6.9
2023-04-12T01:42:00.445Z,6.9
2023-04-12T01:43:04.914Z,6.9
2023-04-12T01:44:00.417Z,6.9
2023-04-12T01:45:02.099Z,6.9
2023-04-12T01:46:00.518Z,6.9
2023-04-12T01:47:01.097Z,6.9
2023-04-12T01:48:01.307Z,6.9
2023-04-12T01:49:00.483Z,6.9
2023-04-12T01:50:13.503Z,7.1
2023-04-12T01:51:06.043Z,7.1
2023-04-12T01:52:02.957Z,7.1
2023-04-12T01:53:12.705Z,7.1
2023-04-12T01:54:08.520Z,7.1
2023-04-12T01:55:03.653Z,7.0
2023-04-12T01:56:06.248Z,7.0
2023-04-12T01:57:02.758Z,7.0
2023-04-12T01:58:02.134Z,7.0
2023-04-12T01:59:02.835Z,7.0
2023-04-12T02:00:02.422Z,6.6
2023-04-12T02:01:01.955Z,6.6
2023-04-12T02:02:01.665Z,6.6
2023-04-12T02:03:01.397Z,6.6
2023-04-12T02:04:02.060Z,6.6
2023-04-12T02:05:00.688Z,6.3
2023-04-12T02:06:01.643Z,6.3
2023-04-12T02:07:00.703Z,6.3
2023-04-12T02:08:01.863Z,6.3
2023-04-12T02:09:01.955Z,6.3
2023-04-12T02:10:00.784Z,6.3
2023-04-12T02:11:00.505Z,6.3
2023-04-12T02:12:00.423Z,6.3
2023-04-12T02:13:01.401Z,6.3
2023-04-12T02:14:00.476Z,6.3
2023-04-12T02:15:00.482Z,6.5
2023-04-12T02:16:00.455Z,6.5
2023-04-12T02:17:00.529Z,6.5
2023-04-12T02:18:00.521Z,6.5
2023-04-12T02:19:00.424Z,6.5
2023-04-12T02:20:00.669Z,6.5
2023-04-12T02:21:00.457Z,6.5
2023-04-12T02:22:00.420Z,6.5
2023-04-12T02:23:00.462Z,6.5
2023-04-12T02:24:00.406Z,6.5
2023-04-12T02:25:00.420Z,6.3
2023-04-12T02:26:00.429Z,6.3
2023-04-12T02:27:00.422Z,6.3
2023-04-12T02:28:00.455Z,6.3
2023-04-12T02:29:00.535Z,6.3
2023-04-12T02:30:00.409Z,5.8
2023-04-12T02:31:00.455Z,5.8
2023-04-12T02:32:00.441Z,5.8
2023-04-12T02:33:00.658Z,5.8
2023-04-12T02:34:00.433Z,5.8
2023-04-12T02:35:00.432Z,6.6
2023-04-12T02:36:00.772Z,6.6
2023-04-12T02:37:00.436Z,6.6
2023-04-12T02:38:01.356Z,6.6
2023-04-12T02:39:00.399Z,6.6
2023-04-12T02:40:00.402Z,6.6
2023-04-12T02:41:00.403Z,6.6
2023-04-12T02:42:00.430Z,6.6
2023-04-12T02:43:00.419Z,6.6
2023-04-12T02:44:00.446Z,6.6
2023-04-12T02:45:00.443Z,6.3
2023-04-12T02:46:00.487Z,6.3
2023-04-12T02:47:00.517Z,6.3
2023-04-12T02:48:00.556Z,6.3
2023-04-12T02:49:00.404Z,6.3
2023-04-12T02:50:00.492Z,6.1
2023-04-12T02:51:00.410Z,6.1
2023-04-12T02:52:00.416Z,6.1
2023-04-12T02:53:00.541Z,6.1
2023-04-12T02:54:00.436Z,6.1
2023-04-12T02:55:00.433Z,6.0
2023-04-12T02:56:03.503Z,6.0
2023-04-12T02:57:00.421Z,6.0
2023-04-12T02:58:00.427Z,6.0
2023-04-12T02:59:00.401Z,6.0
2023-04-12T03:00:00.436Z,6.3
2023-04-12T03:01:00.537Z,6.3
2023-04-12T03:02:00.670Z,6.3
2023-04-12T03:03:01.563Z,6.3
2023-04-12T03:04:00.863Z,6.3
2023-04-12T03:05:00.413Z,6.4
2023-04-12T03:06:00.404Z,6.4
2023-04-12T03:07:00.415Z,6.4
2023-04-12T03:08:00.487Z,6.4
2023-04-12T03:09:00.396Z,6.4
2023-04-12T03:10:00.951Z,6.2
2023-04-12T03:11:00.410Z,6.2
2023-04-12T03:12:00.891Z,6.2
2023-04-12T03:13:00.406Z,6.2
2023-04-12T03:14:00.445Z,6.2
2023-04-12T03:15:00.456Z,6.1
2023-04-12T03:16:20.389Z,6.1
2023-04-12T03:17:00.469Z,6.1
2023-04-12T03:18:00.482Z,6.1
2023-04-12T03:19:00.460Z,6.1
2023-04-12T03:20:08.391Z,6.0
2023-04-12T03:21:00.409Z,6.0
2023-04-12T03:22:00.472Z,6.0
2023-04-12T03:23:00.422Z,6.0
2023-04-12T03:24:00.411Z,6.0
2023-04-12T03:25:00.413Z,6.5
2023-04-12T03:26:00.466Z,6.5
2023-04-12T03:27:01.560Z,6.5
2023-04-12T03:28:00.419Z,6.5
2023-04-12T03:29:02.296Z,6.5
2023-04-12T03:30:00.411Z,6.1
2023-04-12T03:31:00.426Z,6.1
2023-04-12T03:32:00.447Z,6.1
2023-04-12T03:33:00.645Z,6.1
2023-04-12T03:34:00.802Z,6.1
2023-04-12T03:35:00.427Z,6.8
2023-04-12T03:36:00.512Z,6.8
2023-04-12T03:37:01.298Z,6.8
2023-04-12T03:38:00.436Z,6.8
2023-04-12T03:39:00.401Z,6.8
2023-04-12T03:40:00.724Z,6.8
2023-04-12T03:41:00.417Z,6.8
2023-04-12T03:42:00.424Z,6.8
2023-04-12T03:43:02.010Z,6.8
2023-04-12T03:44:00.411Z,6.8
2023-04-12T03:45:00.402Z,8.0
2023-04-12T03:46:02.673Z,8.0
2023-04-12T03:47:00.520Z,8.0
2023-04-12T03:48:00.545Z,8.0
2023-04-12T03:49:00.472Z,8.0
2023-04-12T03:50:11.427Z,8.5
2023-04-12T03:51:00.540Z,8.5
2023-04-12T03:52:00.414Z,8.5
2023-04-12T03:53:00.396Z,8.5
2023-04-12T03:54:00.438Z,8.5
2023-04-12T03:55:00.522Z,8.2
2023-04-12T03:56:00.396Z,8.2
2023-04-12T03:57:00.418Z,8.2
2023-04-12T03:58:00.402Z,8.2
2023-04-12T03:59:00.554Z,8.2
2023-04-12T04:00:00.634Z,7.5
2023-04-12T04:01:02.274Z,7.5
2023-04-12T04:02:00.600Z,7.5
2023-04-12T04:03:00.480Z,7.5
2023-04-12T04:04:01.435Z,7.5
2023-04-12T04:05:01.095Z,7.7
2023-04-12T04:06:01.612Z,7.7
2023-04-12T04:07:00.433Z,7.7
2023-04-12T04:08:00.713Z,7.7
2023-04-12T04:09:00.442Z,7.7
2023-04-12T04:10:00.578Z,7.5
2023-04-12T04:11:00.573Z,7.5
2023-04-12T04:12:00.407Z,7.5
2023-04-12T04:13:00.462Z,7.5
2023-04-12T04:14:00.393Z,7.5
2023-04-12T04:15:00.452Z,7.4
2023-04-12T04:16:03.709Z,7.4
2023-04-12T04:17:00.409Z,7.4
2023-04-12T04:18:00.432Z,7.4
2023-04-12T04:19:00.503Z,7.4
2023-04-12T04:20:00.408Z,7.8
2023-04-12T04:21:00.480Z,7.8
2023-04-12T04:22:00.443Z,7.8
2023-04-12T04:23:00.410Z,7.8
2023-04-12T04:24:00.563Z,7.8
2023-04-12T04:25:00.410Z,7.6
2023-04-12T04:26:00.415Z,7.6
2023-04-12T04:27:00.406Z,7.6
2023-04-12T04:28:00.439Z,7.6
2023-04-12T04:29:00.425Z,7.6
2023-04-12T04:30:00.412Z,7.3
2023-04-12T04:31:00.406Z,7.3
2023-04-12T04:32:00.577Z,7.3
2023-04-12T04:33:00.456Z,7.3
2023-04-12T04:34:01.266Z,7.3
2023-04-12T04:35:00.408Z,7.2
2023-04-12T04:36:01.516Z,7.2
2023-04-12T04:37:00.461Z,7.2
2023-04-12T04:38:00.443Z,7.2
2023-04-12T04:39:00.624Z,7.2
2023-04-12T04:40:00.903Z,7.4
2023-04-12T04:41:01.397Z,7.4
2023-04-12T04:42:00.418Z,7.4
2023-04-12T04:43:00.424Z,7.4
2023-04-12T04:44:00.421Z,7.4
2023-04-12T04:45:00.409Z,7.3
2023-04-12T04:46:00.469Z,7.3
2023-04-12T04:47:00.610Z,7.3
2023-04-12T04:48:00.429Z,7.3
2023-04-12T04:49:00.431Z,7.3
2023-04-12T04:50:00.585Z,7.1
2023-04-12T04:51:00.406Z,7.1
2023-04-12T04:52:00.430Z,7.1
2023-04-12T04:53:00.454Z,7.1
2023-04-12T04:54:00.526Z,7.1
2023-04-12T04:55:00.460Z,6.2
2023-04-12T04:56:00.411Z,6.2
2023-04-12T04:57:01.168Z,6.2
2023-04-12T04:58:00.407Z,6.2
2023-04-12T04:59:00.505Z,6.2
2023-04-12T05:00:00.608Z,6.2
2023-04-12T05:01:00.462Z,6.2
2023-04-12T05:02:00.422Z,6.2
2023-04-12T05:03:01.347Z,6.2
2023-04-12T05:04:00.557Z,6.2
2023-04-12T05:05:00.526Z,6.2
2023-04-12T05:06:00.441Z,6.2
2023-04-12T05:07:00.462Z,6.2
2023-04-12T05:08:00.404Z,6.2
2023-04-12T05:09:00.442Z,6.2
2023-04-12T05:10:01.697Z,6.2
2023-04-12T05:11:00.411Z,6.2
2023-04-12T05:12:00.405Z,6.2
2023-04-12T05:13:00.394Z,6.2
2023-04-12T05:14:00.425Z,6.2
2023-04-12T05:16:00.427Z,5.8
2023-04-12T05:17:00.631Z,5.8
2023-04-12T05:18:00.817Z,5.8
2023-04-12T05:19:00.405Z,5.8
2023-04-12T05:20:00.628Z,6.3
2023-04-12T05:21:02.689Z,6.3
2023-04-12T05:22:00.413Z,6.3
2023-04-12T05:23:00.426Z,6.3
2023-04-12T05:24:00.429Z,6.3
2023-04-12T05:25:00.470Z,6.0
2023-04-12T05:26:00.408Z,6.0
2023-04-12T05:27:00.459Z,6.0
2023-04-12T05:28:00.566Z,6.0
2023-04-12T05:29:00.417Z,6.0
2023-04-12T05:30:00.463Z,6.1
2023-04-12T05:31:00.544Z,6.1
2023-04-12T05:32:01.491Z,6.1
2023-04-12T05:33:00.473Z,6.1
2023-04-12T05:34:00.417Z,6.1
2023-04-12T05:35:00.407Z,6.3
2023-04-12T05:36:00.443Z,6.3
2023-04-12T05:37:00.428Z,6.3
2023-04-12T05:38:00.494Z,6.3
2023-04-12T05:39:00.422Z,6.3
2023-04-12T05:40:00.422Z,5.8
2023-04-12T05:41:00.490Z,5.8
2023-04-12T05:42:00.394Z,5.8
2023-04-12T05:43:00.477Z,5.8
2023-04-12T05:44:00.439Z,5.8
2023-04-12T05:45:00.418Z,6.0
2023-04-12T05:46:00.512Z,6.0
2023-04-12T05:47:00.424Z,6.0
2023-04-12T05:48:00.436Z,6.0
2023-04-12T05:49:01.557Z,6.0
2023-04-12T05:50:00.417Z,6.0
2023-04-12T05:51:01.451Z,6.0
2023-04-12T05:52:01.251Z,6.0
2023-04-12T05:53:00.883Z,6.0
2023-04-12T05:54:00.474Z,6.0
2023-04-12T05:55:00.475Z,5.9
2023-04-12T05:56:00.419Z,5.9
2023-04-12T05:57:00.411Z,5.9
2023-04-12T05:58:00.409Z,5.9
2023-04-12T05:59:00.473Z,5.9
2023-04-12T06:00:00.435Z,5.7
2023-04-12T06:01:00.577Z,5.7
2023-04-12T06:02:00.546Z,5.7
2023-04-12T06:03:00.839Z,5.7
2023-04-12T06:04:00.855Z,5.7
2023-04-12T06:05:00.719Z,5.6
2023-04-12T06:06:00.472Z,5.6
2023-04-12T06:07:00.452Z,5.6
2023-04-12T06:08:00.691Z,5.6
2023-04-12T06:09:00.454Z,5.6
2023-04-12T06:10:00.422Z,6.3
2023-04-12T06:11:00.532Z,6.3
2023-04-12T06:12:00.409Z,6.3
2023-04-12T06:13:00.456Z,6.3
2023-04-12T06:14:00.721Z,6.3
2023-04-12T06:15:00.419Z,6.0
2023-04-12T06:16:00.490Z,6.0
2023-04-12T06:17:00.417Z,6.0
2023-04-12T06:18:00.717Z,6.0
2023-04-12T06:19:00.646Z,6.0
2023-04-12T06:20:00.404Z,5.3
2023-04-12T06:21:00.471Z,5.3
2023-04-12T06:22:00.440Z,5.3
2023-04-12T06:23:00.490Z,5.3
2023-04-12T06:24:00.437Z,5.3
2023-04-12T06:25:00.450Z,5.8
2023-04-12T06:26:00.434Z,5.8
2023-04-12T06:27:00.439Z,5.8
2023-04-12T06:28:00.447Z,5.8
2023-04-12T06:29:00.415Z,5.8
2023-04-12T06:30:00.501Z,5.1
2023-04-12T06:31:00.467Z,5.1
2023-04-12T06:32:00.451Z,5.1
2023-04-12T06:33:00.497Z,5.1
2023-04-12T06:34:00.411Z,5.1
2023-04-12T06:35:00.437Z,5.3
2023-04-12T06:36:00.493Z,5.3
2023-04-12T06:37:00.423Z,5.3
2023-04-12T06:38:00.392Z,5.3
2023-04-12T06:39:00.442Z,5.3
2023-04-12T06:40:00.426Z,5.5
2023-04-12T06:41:00.505Z,5.5
2023-04-12T06:42:00.401Z,5.5
2023-04-12T06:43:00.399Z,5.5
2023-04-12T06:44:00.416Z,5.5
2023-04-12T06:45:00.432Z,5.0
2023-04-12T06:46:00.472Z,5.0
2023-04-12T06:47:00.504Z,5.0
2023-04-12T06:48:00.501Z,5.0
2023-04-12T06:49:00.766Z,5.0
2023-04-12T06:50:00.390Z,5.0
2023-04-12T06:51:00.433Z,5.0
2023-04-12T06:52:00.420Z,5.0
2023-04-12T06:53:00.437Z,5.0
2023-04-12T06:54:00.671Z,5.0
2023-04-12T06:55:00.489Z,5.5
2023-04-12T06:56:03.964Z,5.5
2023-04-12T06:57:00.397Z,5.5
2023-04-12T06:58:00.397Z,5.5
2023-04-12T06:59:00.670Z,5.5
2023-04-12T07:00:02.146Z,4.9
2023-04-12T07:01:04.431Z,4.9
2023-04-12T07:02:00.451Z,4.9
2023-04-12T07:03:00.483Z,4.9
2023-04-12T07:04:00.523Z,4.9
2023-04-12T07:05:00.440Z,5.0
2023-04-12T07:06:07.565Z,5.0
2023-04-12T07:07:00.678Z,5.0
2023-04-12T07:08:00.418Z,5.0
2023-04-12T07:09:00.558Z,5.0
2023-04-12T07:10:00.435Z,5.0
2023-04-12T07:11:08.864Z,5.0
2023-04-12T07:12:00.397Z,5.0
2023-04-12T07:13:00.414Z,5.0
2023-04-12T07:14:00.400Z,5.0
2023-04-12T07:15:00.418Z,4.1
2023-04-12T07:16:00.460Z,4.1
2023-04-12T07:17:00.527Z,4.1
2023-04-12T07:18:00.429Z,4.1
2023-04-12T07:19:00.712Z,4.1
2023-04-12T07:20:00.414Z,9.3
2023-04-12T07:21:00.395Z,9.3
2023-04-12T07:22:00.416Z,9.3
2023-04-12T07:23:00.441Z,9.3
2023-04-12T07:24:00.441Z,9.3
2023-04-12T07:25:00.398Z,4.8
2023-04-12T07:26:01.160Z,4.8
2023-04-12T07:27:00.412Z,4.8
2023-04-12T07:28:00.416Z,4.8
2023-04-12T07:29:00.447Z,4.8
2023-04-12T07:30:00.407Z,5.1
2023-04-12T07:31:00.532Z,5.1
2023-04-12T07:32:00.462Z,5.1
2023-04-12T07:33:12.450Z,5.1
2023-04-12T07:34:00.477Z,5.1
2023-04-12T07:35:00.451Z,5.3
2023-04-12T07:36:01.023Z,5.3
2023-04-12T07:37:00.396Z,5.3
2023-04-12T07:38:00.417Z,5.3
2023-04-12T07:39:00.652Z,5.3
2023-04-12T07:40:00.564Z,5.3
2023-04-12T07:41:00.432Z,5.3
2023-04-12T07:42:00.447Z,5.3
2023-04-12T07:43:00.403Z,5.3
2023-04-12T07:44:00.402Z,5.3
2023-04-12T07:45:00.484Z,8.7
2023-04-12T07:46:00.471Z,8.7
2023-04-12T07:47:00.414Z,8.7
2023-04-12T07:48:00.464Z,8.7
2023-04-12T07:49:00.421Z,8.7
2023-04-12T07:50:00.560Z,6.1
2023-04-12T07:51:00.411Z,6.1
2023-04-12T07:52:00.469Z,6.1
2023-04-12T07:53:20.319Z,6.1
2023-04-12T07:54:00.416Z,6.1
2023-04-12T07:55:00.442Z,5.8
2023-04-12T07:56:00.416Z,5.8
2023-04-12T07:57:01.525Z,5.8
2023-04-12T07:58:00.405Z,5.8
2023-04-12T07:59:01.044Z,5.8
2023-04-12T08:00:00.502Z,5.9
2023-04-12T08:01:01.411Z,5.9
2023-04-12T08:02:00.603Z,5.9
2023-04-12T08:03:00.595Z,5.9
2023-04-12T08:04:00.702Z,5.9
2023-04-12T08:05:00.448Z,5.6
2023-04-12T08:06:00.482Z,5.6
2023-04-12T08:07:00.407Z,5.6
2023-04-12T08:08:00.411Z,5.6
2023-04-12T08:09:00.447Z,5.6
2023-04-12T08:10:00.420Z,5.1
2023-04-12T08:11:00.440Z,5.1
2023-04-12T08:12:00.432Z,5.1
2023-04-12T08:13:00.417Z,5.1
2023-04-12T08:14:00.429Z,5.1
2023-04-12T08:15:00.428Z,4.9
2023-04-12T08:16:00.635Z,4.9
2023-04-12T08:17:00.423Z,4.9
2023-04-12T08:18:00.694Z,4.9
2023-04-12T08:19:00.552Z,4.9
2023-04-12T08:20:02.160Z,4.9
2023-04-12T08:21:00.468Z,4.9
2023-04-12T08:22:00.417Z,4.9
2023-04-12T08:23:00.424Z,4.9
2023-04-12T08:24:00.396Z,4.9
2023-04-12T08:25:00.634Z,5.1
2023-04-12T08:26:00.440Z,5.1
2023-04-12T08:27:00.454Z,5.1
2023-04-12T08:28:00.465Z,5.1
2023-04-12T08:29:00.407Z,5.1
2023-04-12T08:30:00.540Z,5.1
2023-04-12T08:31:01.578Z,5.1
2023-04-12T08:32:00.492Z,5.1
2023-04-12T08:33:00.477Z,5.1
2023-04-12T08:34:00.561Z,5.1
2023-04-12T08:35:00.466Z,5.1
2023-04-12T08:36:00.411Z,5.1
2023-04-12T08:37:00.438Z,5.1
2023-04-12T08:38:00.442Z,5.1
2023-04-12T08:39:00.846Z,5.1
2023-04-12T08:40:04.542Z,3.7
2023-04-12T08:41:03.980Z,3.7
2023-04-12T08:42:01.903Z,3.7
2023-04-12T08:43:01.263Z,3.7
2023-04-12T08:44:00.786Z,3.7
2023-04-12T08:45:03.997Z,3.8
2023-04-12T08:46:00.692Z,3.8
2023-04-12T08:47:01.935Z,3.8
2023-04-12T08:48:02.306Z,3.8
2023-04-12T08:49:00.448Z,3.8
2023-04-12T08:50:00.831Z,4.3
2023-04-12T08:51:00.652Z,4.3
2023-04-12T08:52:03.341Z,4.3
2023-04-12T08:53:00.492Z,4.3
2023-04-12T08:54:00.736Z,4.3
2023-04-12T08:55:02.095Z,3.6
2023-04-12T08:56:00.560Z,3.6
2023-04-12T08:57:02.999Z,3.6
2023-04-12T08:58:02.350Z,3.6
2023-04-12T08:59:01.393Z,3.6
2023-04-12T09:00:01.940Z,3.7
2023-04-12T09:01:00.533Z,3.7
2023-04-12T09:02:00.743Z,3.7
2023-04-12T09:03:00.747Z,3.7
2023-04-12T09:04:05.896Z,3.7
2023-04-12T09:05:00.608Z,3.4
2023-04-12T09:06:03.789Z,3.4
2023-04-12T09:07:00.413Z,3.4
2023-04-12T09:08:00.745Z,3.4
2023-04-12T09:09:00.411Z,3.4
2023-04-12T09:10:00.546Z,3.6
2023-04-12T09:11:00.411Z,3.6
2023-04-12T09:12:06.753Z,3.6
2023-04-12T09:13:00.769Z,3.6
2023-04-12T09:14:00.562Z,3.6
2023-04-12T09:15:09.327Z,3.6
2023-04-12T09:16:00.599Z,3.6
2023-04-12T09:17:00.498Z,3.6
2023-04-12T09:18:04.663Z,3.6
2023-04-12T09:19:00.446Z,3.6
2023-04-12T09:20:00.428Z,3.5
2023-04-12T09:21:08.335Z,3.5
2023-04-12T09:22:01.287Z,3.5
2023-04-12T09:23:00.716Z,3.5
2023-04-12T09:24:11.623Z,3.5
2023-04-12T09:25:00.566Z,3.5
2023-04-12T09:26:00.584Z,3.5
2023-04-12T09:27:03.394Z,3.5
2023-04-12T09:28:00.464Z,3.5
2023-04-12T09:29:00.754Z,3.5
2023-04-12T09:30:08.529Z,3.3
2023-04-12T09:31:00.469Z,3.3
2023-04-12T09:32:03.909Z,3.3
2023-04-12T09:33:09.680Z,3.3
2023-04-12T09:34:08.140Z,3.3
2023-04-12T09:35:00.610Z,5.5
2023-04-12T09:36:02.221Z,5.5
2023-04-12T09:37:12.403Z,5.5
2023-04-12T09:38:09.163Z,5.5
2023-04-12T09:39:00.498Z,5.5
2023-04-12T09:40:01.513Z,4.1
2023-04-12T09:41:19.758Z,4.1
2023-04-12T09:42:05.680Z,4.1
2023-04-12T09:43:01.415Z,4.1
2023-04-12T09:44:01.181Z,4.1
2023-04-12T09:45:18.936Z,4.0
2023-04-12T09:46:09.248Z,4.0
2023-04-12T09:47:01.553Z,4.0
2023-04-12T09:48:00.673Z,4.0
2023-04-12T09:49:00.448Z,4.0
2023-04-12T09:50:00.629Z,4.0
2023-04-12T09:51:00.593Z,4.0
2023-04-12T09:52:00.833Z,4.0
2023-04-12T09:53:01.792Z,4.0
2023-04-12T09:54:02.421Z,4.0
2023-04-12T09:55:02.139Z,3.8
2023-04-12T09:56:02.208Z,3.8
2023-04-12T09:57:00.740Z,3.8
2023-04-12T09:58:02.426Z,3.8
2023-04-12T09:59:03.881Z,3.8
2023-04-12T10:00:03.671Z,4.5
2023-04-12T10:01:01.922Z,4.5
2023-04-12T10:02:04.612Z,4.5
2023-04-12T10:03:00.589Z,4.5
2023-04-12T10:04:01.496Z,4.5
2023-04-12T10:05:01.712Z,6.4
2023-04-12T10:06:02.184Z,6.4
2023-04-12T10:07:00.659Z,6.4
2023-04-12T10:08:00.596Z,6.4
2023-04-12T10:09:05.021Z,6.4
2023-04-12T10:10:01.555Z,4.4
2023-04-12T10:11:00.451Z,4.4
2023-04-12T10:12:01.423Z,4.4
2023-04-12T10:13:00.736Z,4.4
2023-04-12T10:14:02.216Z,4.4
2023-04-12T10:15:03.658Z,4.0
2023-04-12T10:16:03.448Z,4.0
2023-04-12T10:17:03.259Z,4.0
2023-04-12T10:18:01.525Z,4.0
2023-04-12T10:19:02.318Z,4.0
2023-04-12T10:20:02.008Z,4.3
2023-04-12T10:21:00.780Z,4.3
2023-04-12T10:22:00.420Z,4.3
2023-04-12T10:23:00.434Z,4.3
2023-04-12T10:24:00.551Z,4.3
2023-04-12T10:25:01.039Z,4.1
2023-04-12T10:26:03.397Z,4.1
2023-04-12T10:27:00.488Z,4.1
2023-04-12T10:28:12.304Z,4.1
2023-04-12T10:29:20.364Z,4.1
2023-04-12T10:30:20.332Z,4.0
2023-04-12T10:31:21.902Z,4.0
2023-04-12T10:32:17.351Z,4.0
2023-04-12T10:33:01.516Z,4.0
2023-04-12T10:34:00.912Z,4.0
2023-04-12T10:35:01.406Z,5.0
2023-04-12T10:36:01.845Z,5.0
2023-04-12T10:37:00.730Z,5.0
2023-04-12T10:38:01.527Z,5.0
2023-04-12T10:39:09.059Z,5.0
2023-04-12T10:40:02.042Z,3.6
2023-04-12T10:41:11.809Z,3.6
2023-04-12T10:42:20.395Z,3.6
2023-04-12T10:43:20.318Z,3.6
2023-04-12T10:44:20.317Z,3.6
2023-04-12T10:45:20.418Z,4.2
2023-04-12T10:46:00.481Z,4.2
2023-04-12T10:47:00.461Z,4.2
2023-04-12T10:48:03.031Z,4.2
2023-04-12T10:49:07.730Z,4.2
2023-04-12T10:50:20.322Z,3.9
2023-04-12T10:51:10.358Z,3.9
2023-04-12T10:52:00.395Z,3.9
2023-04-12T10:53:14.901Z,3.9
2023-04-12T10:54:07.748Z,3.9
2023-04-12T10:55:20.330Z,3.6
2023-04-12T10:56:20.375Z,3.6
2023-04-12T10:57:02.205Z,3.6
2023-04-12T10:58:00.429Z,3.6
2023-04-12T10:59:03.335Z,3.6
2023-04-12T11:00:00.521Z,3.3
2023-04-12T11:01:09.122Z,3.3
2023-04-12T11:02:03.774Z,3.3
2023-04-12T11:03:04.538Z,3.3
2023-04-12T11:04:11.945Z,3.3
2023-04-12T11:05:06.447Z,3.4
2023-04-12T11:06:12.664Z,3.4
2023-04-12T11:07:05.477Z,3.4
2023-04-12T11:08:00.710Z,3.4
2023-04-12T11:09:01.089Z,3.4
2023-04-12T11:10:00.472Z,3.4
2023-04-12T11:11:03.903Z,3.4
2023-04-12T11:12:03.643Z,3.4
2023-04-12T11:13:05.280Z,3.4
2023-04-12T11:14:00.561Z,3.4
2023-04-12T11:15:02.485Z,3.4
2023-04-12T11:16:02.231Z,3.4
2023-04-12T11:17:09.986Z,3.4
2023-04-12T11:18:04.689Z,3.4
2023-04-12T11:19:01.236Z,3.4
2023-04-12T11:20:00.813Z,3.4
2023-04-12T11:21:02.325Z,3.4
2023-04-12T11:22:02.415Z,3.4
2023-04-12T11:23:03.385Z,3.4
2023-04-12T11:24:00.599Z,3.4
2023-04-12T11:25:01.516Z,3.7
2023-04-12T11:26:02.038Z,3.7
2023-04-12T11:27:00.790Z,3.7
2023-04-12T11:28:00.403Z,3.7
2023-04-12T11:29:06.559Z,3.7
2023-04-12T11:30:00.702Z,3.6
2023-04-12T11:31:01.833Z,3.6
2023-04-12T11:32:03.113Z,3.6
2023-04-12T11:33:00.463Z,3.6
2023-04-12T11:34:00.441Z,3.6
2023-04-12T11:35:00.540Z,3.8
2023-04-12T11:36:09.493Z,3.8
2023-04-12T11:37:01.326Z,3.8
2023-04-12T11:38:00.529Z,3.8
2023-04-12T11:39:00.468Z,3.8
2023-04-12T11:40:02.635Z,3.8
2023-04-12T11:41:00.878Z,3.8
2023-04-12T11:42:00.799Z,3.8
2023-04-12T11:43:00.442Z,3.8
2023-04-12T11:44:00.861Z,3.8
2023-04-12T11:45:05.555Z,3.9
2023-04-12T11:46:00.846Z,3.9
2023-04-12T11:47:01.185Z,3.9
2023-04-12T11:48:00.591Z,3.9
2023-04-12T11:49:02.430Z,3.9
2023-04-12T11:50:00.443Z,3.9
2023-04-12T11:51:11.106Z,3.9
2023-04-12T11:52:04.203Z,3.9
2023-04-12T11:53:12.093Z,3.9
2023-04-12T11:54:00.810Z,3.9
2023-04-12T11:55:02.335Z,4.1
2023-04-12T11:56:00.464Z,4.1
2023-04-12T11:57:00.426Z,4.1
2023-04-12T11:58:00.448Z,4.1
2023-04-12T11:59:00.444Z,4.1
2023-04-12T12:00:01.241Z,4.0
2023-04-12T12:01:00.947Z,4.0
2023-04-12T12:02:00.928Z,4.0
2023-04-12T12:03:07.252Z,4.0
2023-04-12T12:04:01.499Z,4.0
2023-04-12T12:05:00.886Z,3.9
2023-04-12T12:06:00.922Z,3.9
2023-04-12T12:07:00.906Z,3.9
2023-04-12T12:08:01.395Z,3.9
2023-04-12T12:09:02.661Z,3.9
2023-04-12T12:10:00.623Z,3.6
2023-04-12T12:11:07.864Z,3.6
2023-04-12T12:12:00.505Z,3.6
2023-04-12T12:13:00.508Z,3.6
2023-04-12T12:14:00.755Z,3.6
2023-04-12T12:15:04.332Z,3.6
2023-04-12T12:16:00.457Z,3.6
2023-04-12T12:17:01.284Z,3.6
2023-04-12T12:18:00.449Z,3.6
2023-04-12T12:19:03.319Z,3.6
2023-04-12T12:20:00.419Z,4.1
2023-04-12T12:21:00.445Z,4.1
2023-04-12T12:22:10.353Z,4.1
2023-04-12T12:23:01.307Z,4.1
2023-04-12T12:24:00.809Z,4.1
2023-04-12T12:25:00.501Z,4.1
2023-04-12T12:26:17.891Z,4.1
2023-04-12T12:27:02.174Z,4.1
2023-04-12T12:28:01.765Z,4.1
2023-04-12T12:29:00.757Z,4.1
2023-04-12T12:30:01.856Z,4.1
2023-04-12T12:31:04.711Z,4.1
2023-04-12T12:32:00.478Z,4.1
2023-04-12T12:33:00.460Z,4.1
2023-04-12T12:34:00.494Z,4.1
2023-04-12T12:35:00.674Z,4.3
2023-04-12T12:36:00.514Z,4.3
2023-04-12T12:37:01.965Z,4.3
2023-04-12T12:38:00.408Z,4.3
2023-04-12T12:39:07.222Z,4.3
2023-04-12T12:40:05.792Z,4.2
2023-04-12T12:41:14.424Z,4.2
2023-04-12T12:42:00.425Z,4.2
2023-04-12T12:43:00.537Z,4.2
2023-04-12T12:44:00.428Z,4.2
2023-04-12T12:45:00.995Z,4.4
2023-04-12T12:46:00.455Z,4.4
2023-04-12T12:47:10.117Z,4.4
2023-04-12T12:48:02.393Z,4.4
2023-04-12T12:49:00.413Z,4.4
2023-04-12T12:50:00.412Z,4.5
2023-04-12T12:51:00.443Z,4.5
2023-04-12T12:52:00.428Z,4.5
2023-04-12T12:53:01.641Z,4.5
2023-04-12T12:54:00.464Z,4.5
2023-04-12T12:55:00.403Z,4.9
2023-04-12T12:56:00.424Z,4.9
2023-04-12T12:57:00.415Z,4.9
2023-04-12T12:59:00.639Z,4.9
2023-04-12T13:00:00.422Z,7.2
2023-04-12T13:01:00.538Z,7.2
2023-04-12T13:02:00.558Z,7.2
2023-04-12T13:03:00.685Z,7.2
2023-04-12T13:04:00.580Z,7.2
2023-04-12T13:05:00.543Z,4.3
2023-04-12T13:06:00.412Z,4.3
2023-04-12T13:07:00.427Z,4.3
2023-04-12T13:08:00.407Z,4.3
2023-04-12T13:09:02.145Z,4.3
2023-04-12T13:10:00.554Z,4.1
2023-04-12T13:11:00.417Z,4.1
2023-04-12T13:12:00.427Z,4.1
2023-04-12T13:13:01.553Z,4.1
2023-04-12T13:14:00.421Z,4.1
2023-04-12T13:15:17.484Z,4.2
2023-04-12T13:16:00.484Z,4.2
2023-04-12T13:17:00.418Z,4.2
2023-04-12T13:18:00.731Z,4.2
2023-04-12T13:19:00.562Z,4.2
2023-04-12T13:20:00.442Z,4.6
2023-04-12T13:21:00.447Z,4.6
2023-04-12T13:22:00.397Z,4.6
2023-04-12T13:23:00.404Z,4.6
2023-04-12T13:24:00.434Z,4.6
2023-04-12T13:25:00.448Z,3.7
2023-04-12T13:26:00.418Z,3.7
2023-04-12T13:27:02.016Z,3.7
2023-04-12T13:28:00.417Z,3.7
2023-04-12T13:29:00.800Z,3.7
2023-04-12T13:30:00.424Z,4.6
2023-04-12T13:31:00.466Z,4.6
2023-04-12T13:32:00.584Z,4.6
2023-04-12T13:33:00.576Z,4.6
2023-04-12T13:34:00.410Z,4.6
2023-04-12T13:35:00.464Z,4.2
2023-04-12T13:36:00.410Z,4.2
2023-04-12T13:37:00.534Z,4.2
2023-04-12T13:38:00.409Z,4.2
2023-04-12T13:39:00.752Z,4.2
2023-04-12T13:40:00.498Z,5.2
2023-04-12T13:41:00.467Z,5.2
2023-04-12T13:42:00.520Z,5.2
2023-04-12T13:43:00.429Z,5.2
2023-04-12T13:44:00.724Z,5.2
2023-04-12T13:45:00.408Z,4.3
2023-04-12T13:46:00.492Z,4.3
2023-04-12T13:47:00.429Z,4.3